This is the latest recevied weather packets stored in our database for station/object DG3RAP-11. If no packets are shown the sender has not sent any weather packets the latest 10 day(s).
| Time | Temp. | Humidity | Pressure | Rain* | Wind** | Luminosity | Snow |
|---|---|---|---|---|---|---|---|
| 1777806003 | 22.78° C | 38% | 1014.2 hPa | 0 mm | - | - | - |
| 1777805643 | 23.33° C | 37% | 1014.5 hPa | 0 mm | - | - | - |
| 1777805103 | 23.33° C | 36% | 1014.6 hPa | 0 mm | - | - | - |
| 1777804563 | 22.78° C | 37% | 1014.7 hPa | 0 mm | - | - | - |
| 1777804023 | 22.78° C | 37% | 1014.8 hPa | 0 mm | - | - | - |
| 1777803483 | 22.78° C | 37% | 1015.2 hPa | 0 mm | - | - | - |
| 1777802943 | 22.78° C | 38% | 1015.2 hPa | 0 mm | - | - | - |
| 1777802403 | 21.67° C | 38% | 1015.4 hPa | 0 mm | - | - | - |
| 1777802043 | 22.22° C | 37% | 1015.3 hPa | 0 mm | - | - | - |
| 1777801503 | 22.22° C | 38% | 1015.4 hPa | 0 mm | - | - | - |
| 1777800963 | 21.11° C | 40% | 1015.5 hPa | 0 mm | - | - | - |
| 1777800423 | 20.56° C | 41% | 1015.6 hPa | 0 mm | - | - | - |
| 1777799883 | 20° C | 41% | 1015.9 hPa | 0 mm | - | - | - |
| 1777799343 | 20° C | 41% | 1015.4 hPa | 0 mm | - | - | - |
| 1777798803 | 19.44° C | 42% | 1016 hPa | 0 mm | - | - | - |
| 1777798443 | 18.89° C | 44% | 1015.8 hPa | 0 mm | - | - | - |
| 1777797904 | 19.44° C | 42% | 1015.7 hPa | 0 mm | - | - | - |
| 1777797363 | 18.33° C | 44% | 1015.6 hPa | 0 mm | - | - | - |
| 1777796823 | 17.78° C | 44% | 1015.7 hPa | 0 mm | - | - | - |
| 1777796283 | 18.33° C | 43% | 1015.9 hPa | 0 mm | - | - | - |
| 1777795743 | 17.78° C | 45% | 1015.8 hPa | 0 mm | - | - | - |
| 1777795203 | 17.22° C | 46% | 1016 hPa | 0 mm | - | - | - |
| 1777794843 | 17.78° C | 45% | 1015.8 hPa | 0 mm | - | - | - |
| 1777794303 | 17.22° C | 45% | 1015.9 hPa | 0 mm | - | - | - |
| 1777793763 | 17.22° C | 42% | 1016 hPa | 0 mm | - | - | - |
* Rain latest hour (hover to see other rain measurements)
** Current wind speed in m/s (hover to see current wind gust speed)